Time;durP1;ratioP1;P1;durP2;ratioP2;P2;SDS_P1;SDS_P2;PMS_P1;PMS_P2;Temp;Humidity;BMP_temperature;BMP_pressure;BME280_temperature;BME280_humidity;BME280_pressure;Samples;Min_cycle;Max_cycle;Signal;HPM_P1;HPM_P2
2021/09/01 00:00:05;;;;;;;8.65;6.88;;;11.70;99.90;;;;;;5030431;28;20209;-67
2021/09/01 00:02:32;;;;;;;8.52;7.22;;;11.70;99.90;;;;;;5030321;28;20205;-67
2021/09/01 00:04:59;;;;;;;8.57;7.72;;;11.70;99.90;;;;;;5030114;28;20676;-67
2021/09/01 00:07:26;;;;;;;9.73;7.90;;;11.70;99.90;;;;;;5029936;28;20229;-67
2021/09/01 00:09:52;;;;;;;7.95;7.15;;;11.60;99.90;;;;;;5033001;28;20902;-67
2021/09/01 00:12:20;;;;;;;11.23;7.82;;;11.60;99.90;;;;;;5030300;28;20230;-67
2021/09/01 00:14:47;;;;;;;8.73;7.05;;;11.60;99.90;;;;;;5030073;28;20213;-67
2021/09/01 00:17:14;;;;;;;8.95;7.75;;;11.60;99.90;;;;;;5030080;28;20229;-67
2021/09/01 00:19:40;;;;;;;8.05;6.88;;;11.50;99.90;;;;;;5030279;28;20214;-67
2021/09/01 00:22:07;;;;;;;8.25;7.35;;;11.50;99.90;;;;;;5030378;28;20201;-67
2021/09/01 00:24:35;;;;;;;8.52;7.18;;;11.50;99.90;;;;;;5029885;28;20210;-67
2021/09/01 00:27:02;;;;;;;10.13;7.40;;;11.50;99.90;;;;;;5029913;28;20987;-67
2021/09/01 00:29:30;;;;;;;8.20;7.03;;;11.50;99.90;;;;;;5029892;28;20212;-67
2021/09/01 00:31:57;;;;;;;9.90;7.18;;;11.50;99.90;;;;;;5026465;28;20225;-67
2021/09/01 00:34:23;;;;;;;9.43;7.50;;;11.50;99.90;;;;;;5029380;28;20210;-67
2021/09/01 00:36:50;;;;;;;10.07;7.60;;;11.50;99.90;;;;;;5029575;28;20229;-67
2021/09/01 00:39:17;;;;;;;12.65;7.90;;;11.40;99.90;;;;;;5030145;28;20873;-67
2021/09/01 00:41:43;;;;;;;12.85;7.75;;;11.40;99.90;;;;;;5030058;28;20202;-67
2021/09/01 00:44:19;;;;;;;8.55;7.32;;;11.40;99.90;;;;;;5029985;28;20692;-67
2021/09/01 00:46:48;;;;;;;8.35;7.20;;;11.40;99.90;;;;;;5029616;28;20308;-67
2021/09/01 00:49:16;;;;;;;10.65;7.95;;;11.40;99.90;;;;;;5033007;28;20565;-68
2021/09/01 00:51:44;;;;;;;10.82;7.97;;;11.40;99.90;;;;;;5033462;28;20218;-67
2021/09/01 00:54:14;;;;;;;12.18;7.88;;;11.40;99.90;;;;;;5033469;28;20206;-67
2021/09/01 00:56:43;;;;;;;10.77;8.30;;;11.30;99.90;;;;;;5032898;28;20232;-67
2021/09/01 00:59:13;;;;;;;9.20;7.55;;;11.30;99.90;;;;;;5033620;28;20213;-67
2021/09/01 01:01:40;;;;;;;12.23;7.45;;;11.40;99.90;;;;;;5033565;28;20225;-67
2021/09/01 01:04:08;;;;;;;10.40;8.48;;;11.40;99.90;;;;;;5033313;28;20208;-67
2021/09/01 01:06:35;;;;;;;8.82;7.90;;;11.40;99.90;;;;;;5032983;28;20590;-67
2021/09/01 01:09:02;;;;;;;8.18;6.93;;;11.40;99.90;;;;;;5033262;28;20209;-67
2021/09/01 01:11:28;;;;;;;13.38;7.82;;;11.30;99.90;;;;;;5033392;28;20225;-67
2021/09/01 01:13:56;;;;;;;10.38;9.27;;;11.30;99.90;;;;;;5033101;28;20913;-67
2021/09/01 01:16:23;;;;;;;9.68;7.38;;;11.30;99.90;;;;;;5032838;28;20221;-67
2021/09/01 01:18:51;;;;;;;10.98;8.73;;;11.20;99.90;;;;;;5033082;28;20201;-67
2021/09/01 01:21:20;;;;;;;9.63;7.80;;;11.30;99.90;;;;;;5033341;28;20206;-67
2021/09/01 01:23:48;;;;;;;12.50;9.00;;;11.20;99.90;;;;;;5032787;28;20205;-67
2021/09/01 01:26:16;;;;;;;12.40;9.57;;;11.20;99.90;;;;;;5032567;28;20206;-67
2021/09/01 01:28:43;;;;;;;9.45;7.43;;;11.20;99.90;;;;;;5032949;28;20209;-67
2021/09/01 01:31:10;;;;;;;14.52;8.75;;;11.20;99.90;;;;;;5033202;28;20205;-67
2021/09/01 01:33:36;;;;;;;16.90;8.57;;;11.20;99.90;;;;;;5032931;28;20225;-67
2021/09/01 01:36:03;;;;;;;9.88;8.77;;;11.10;99.90;;;;;;5031883;28;20669;-67
2021/09/01 01:38:31;;;;;;;9.73;7.45;;;11.10;99.90;;;;;;5033012;28;20201;-67
2021/09/01 01:40:58;;;;;;;10.18;8.23;;;11.00;99.90;;;;;;5033081;28;20589;-67
2021/09/01 01:43:27;;;;;;;13.25;8.43;;;11.00;99.90;;;;;;5032837;28;20197;-67
2021/09/01 01:45:54;;;;;;;12.32;9.07;;;11.00;99.90;;;;;;5032083;28;20244;-67
2021/09/01 01:48:21;;;;;;;10.07;8.82;;;11.00;99.90;;;;;;5032833;28;20221;-67
2021/09/01 01:50:48;;;;;;;12.07;9.25;;;11.00;99.90;;;;;;5032458;28;20717;-67
2021/09/01 01:53:15;;;;;;;10.20;8.93;;;11.00;99.90;;;;;;5032638;28;20225;-67
2021/09/01 01:55:41;;;;;;;11.85;8.95;;;11.00;99.90;;;;;;5031850;28;20213;-67
2021/09/01 01:58:08;;;;;;;15.48;9.50;;;11.00;99.90;;;;;;5032844;28;20321;-67
2021/09/01 02:00:37;;;;;;;11.15;8.77;;;11.00;99.90;;;;;;5031915;28;20224;-67
2021/09/01 02:03:04;;;;;;;9.57;8.57;;;11.00;99.90;;;;;;5032348;28;20543;-67
2021/09/01 02:05:30;;;;;;;9.90;7.97;;;11.00;99.90;;;;;;5031887;28;20202;-67
2021/09/01 02:07:57;;;;;;;9.63;8.43;;;10.90;99.90;;;;;;5032007;28;20228;-67
2021/09/01 02:10:24;;;;;;;11.10;8.20;;;10.90;99.90;;;;;;5032330;28;20204;-67
2021/09/01 02:12:51;;;;;;;10.30;8.05;;;10.90;99.90;;;;;;5031783;28;20225;-67
2021/09/01 02:15:19;;;;;;;10.10;8.25;;;10.90;99.90;;;;;;5031775;28;20205;-67
2021/09/01 02:17:47;;;;;;;12.38;8.15;;;10.80;99.90;;;;;;5031640;28;20222;-67
2021/09/01 02:20:16;;;;;;;11.30;8.05;;;10.80;99.90;;;;;;5032050;28;20214;-67
2021/09/01 02:22:43;;;;;;;9.80;7.10;;;10.80;99.90;;;;;;5031691;28;20209;-67
2021/09/01 02:25:12;;;;;;;9.38;7.85;;;10.80;99.90;;;;;;5031821;28;20612;-67
2021/09/01 02:27:39;;;;;;;12.00;8.52;;;10.80;99.90;;;;;;5031233;28;20240;-67
2021/09/01 02:30:08;;;;;;;11.50;8.85;;;10.80;99.90;;;;;;5031917;28;20205;-67
2021/09/01 02:32:35;;;;;;;9.82;8.18;;;10.80;99.90;;;;;;5031698;28;20708;-67
2021/09/01 02:35:03;;;;;;;8.38;7.50;;;10.80;99.90;;;;;;5031514;28;20213;-67
2021/09/01 02:37:30;;;;;;;17.27;9.18;;;10.80;99.90;;;;;;5031232;28;20221;-67
2021/09/01 02:39:57;;;;;;;9.77;8.10;;;10.80;99.90;;;;;;5031760;28;20614;-67
2021/09/01 02:42:24;;;;;;;10.15;8.10;;;10.80;99.90;;;;;;5031822;28;20201;-67
2021/09/01 02:44:50;;;;;;;12.60;7.85;;;10.80;99.90;;;;;;5031175;28;20685;-67
2021/09/01 02:47:17;;;;;;;10.20;8.05;;;10.80;99.90;;;;;;5031321;28;20229;-67
2021/09/01 02:49:44;;;;;;;10.20;8.57;;;10.80;99.90;;;;;;5031066;28;20847;-67
2021/09/01 02:52:12;;;;;;;12.02;8.82;;;10.80;99.90;;;;;;5031451;28;20217;-67
2021/09/01 02:54:39;;;;;;;13.18;8.82;;;10.70;99.90;;;;;;5030997;28;20206;-67
2021/09/01 02:57:05;;;;;;;12.15;9.18;;;10.70;99.90;;;;;;5031012;28;20230;-67
2021/09/01 02:59:32;;;;;;;12.95;9.75;;;10.70;99.90;;;;;;5031250;28;20240;-67
2021/09/01 03:01:59;;;;;;;9.60;8.65;;;10.60;99.90;;;;;;5031127;28;20559;-67
2021/09/01 03:04:25;;;;;;;11.23;8.43;;;10.70;99.90;;;;;;5030919;28;20213;-67
2021/09/01 03:06:52;;;;;;;10.40;9.15;;;10.60;99.90;;;;;;5030515;28;20230;-67
2021/09/01 03:09:20;;;;;;;9.30;8.27;;;10.60;99.90;;;;;;5031128;28;20209;-67
2021/09/01 03:11:47;;;;;;;10.45;8.55;;;10.60;99.90;;;;;;5029994;28;20241;-67
2021/09/01 03:14:13;;;;;;;12.07;8.85;;;10.60;99.90;;;;;;5030934;28;20209;-67
2021/09/01 03:16:40;;;;;;;10.23;8.90;;;10.60;99.90;;;;;;5030327;28;20229;-67
2021/09/01 03:19:07;;;;;;;12.10;9.20;;;10.60;99.90;;;;;;5030816;28;20213;-67
2021/09/01 03:21:33;;;;;;;12.52;9.40;;;10.60;99.90;;;;;;5030931;28;20202;-67
2021/09/01 03:24:00;;;;;;;10.95;8.65;;;10.60;99.90;;;;;;5030543;28;20206;-67
2021/09/01 03:26:31;;;;;;;13.35;9.32;;;10.60;99.90;;;;;;5030124;28;20732;-67
2021/09/01 03:28:58;;;;;;;11.80;8.60;;;10.60;99.90;;;;;;5030644;28;20202;-67
2021/09/01 03:31:25;;;;;;;13.23;9.20;;;10.50;99.90;;;;;;5033478;28;20197;-68
2021/09/01 03:33:52;;;;;;;13.73;10.50;;;10.50;99.90;;;;;;5045750;28;20697;-68
2021/09/01 03:36:18;;;;;;;13.10;10.10;;;10.50;99.90;;;;;;5038309;28;20204;-67
2021/09/01 03:38:45;;;;;;;12.70;8.85;;;10.40;99.90;;;;;;5038651;28;20203;-67
2021/09/01 03:41:12;;;;;;;13.10;8.93;;;10.40;99.90;;;;;;5040407;28;20228;-67
2021/09/01 03:43:40;;;;;;;12.05;9.23;;;10.40;99.90;;;;;;5038570;28;20193;-67
2021/09/01 03:46:07;;;;;;;9.82;8.32;;;10.40;99.90;;;;;;5037847;28;20201;-67
2021/09/01 03:48:34;;;;;;;11.20;9.93;;;10.40;99.90;;;;;;5039993;28;20193;-67
2021/09/01 03:51:01;;;;;;;14.52;9.90;;;10.40;99.90;;;;;;5038950;28;20565;-67
2021/09/01 03:53:28;;;;;;;12.57;10.20;;;10.40;99.90;;;;;;5037192;28;20224;-67
2021/09/01 03:55:55;;;;;;;15.60;10.90;;;10.30;99.90;;;;;;5034006;28;20457;-67
2021/09/01 03:58:21;;;;;;;10.00;8.82;;;10.30;99.90;;;;;;5033006;28;20225;-66
2021/09/01 04:00:49;;;;;;;10.23;8.65;;;10.30;99.90;;;;;;5028210;28;20197;-67
2021/09/01 04:03:16;;;;;;;10.65;9.45;;;10.30;99.90;;;;;;5023476;28;20193;-67
2021/09/01 04:05:43;;;;;;;11.27;9.23;;;10.30;99.90;;;;;;5035272;28;20205;-66
2021/09/01 04:08:10;;;;;;;11.07;8.65;;;10.30;99.90;;;;;;5037768;28;20222;-67
2021/09/01 04:10:36;;;;;;;10.77;9.13;;;10.30;99.90;;;;;;5038695;28;20564;-67
2021/09/01 04:13:03;;;;;;;12.40;9.45;;;10.30;99.90;;;;;;5040208;28;20217;-67
2021/09/01 04:15:30;;;;;;;12.30;8.65;;;10.30;99.90;;;;;;5038544;28;20201;-67
2021/09/01 04:17:58;;;;;;;11.63;9.00;;;10.30;99.90;;;;;;5037767;28;20221;-67
2021/09/01 04:20:25;;;;;;;16.15;9.05;;;10.40;99.90;;;;;;5039801;28;20208;-67
2021/09/01 04:22:52;;;;;;;11.25;9.18;;;10.30;99.90;;;;;;5038754;28;20573;-67
2021/09/01 04:25:19;;;;;;;9.95;7.75;;;10.30;99.90;;;;;;5041864;28;20576;-67
2021/09/01 04:27:45;;;;;;;11.70;8.60;;;10.30;99.90;;;;;;5045927;28;20719;-67
2021/09/01 04:30:12;;;;;;;12.40;8.40;;;10.30;99.90;;;;;;5053751;28;20568;-67
2021/09/01 04:32:39;;;;;;;12.48;9.13;;;10.30;99.90;;;;;;5053137;28;20696;-66
2021/09/01 04:35:08;;;;;;;9.05;7.50;;;10.20;99.90;;;;;;5053715;28;20307;-67
2021/09/01 04:37:35;;;;;;;11.18;7.63;;;10.20;99.90;;;;;;5053168;28;20225;-67
2021/09/01 04:40:02;;;;;;;10.57;8.75;;;10.20;99.90;;;;;;5053612;28;20205;-67
2021/09/01 04:42:28;;;;;;;11.40;8.50;;;10.20;99.90;;;;;;5053495;28;20209;-67
2021/09/01 04:44:55;;;;;;;11.55;8.95;;;10.10;99.90;;;;;;5053165;28;20205;-67
2021/09/01 04:47:22;;;;;;;11.10;8.13;;;10.10;99.90;;;;;;5053256;28;20346;-67
2021/09/01 04:49:48;;;;;;;10.25;7.40;;;10.00;99.90;;;;;;5052966;28;20205;-67
2021/09/01 04:52:16;;;;;;;10.48;8.23;;;10.00;99.90;;;;;;5053359;28;20208;-67
2021/09/01 04:54:43;;;;;;;13.68;9.10;;;10.00;99.90;;;;;;5052864;28;20217;-67
2021/09/01 04:57:10;;;;;;;12.02;8.57;;;10.00;99.90;;;;;;5052964;28;20224;-67
2021/09/01 04:59:36;;;;;;;10.85;8.75;;;10.00;99.90;;;;;;5053340;28;20204;-67
2021/09/01 05:02:04;;;;;;;9.00;7.45;;;10.00;99.90;;;;;;5045011;28;20692;-66
2021/09/01 05:04:30;;;;;;;11.05;8.00;;;10.00;99.90;;;;;;5052255;28;20207;-67
2021/09/01 05:06:57;;;;;;;16.67;9.10;;;10.00;99.90;;;;;;5052019;28;20252;-67
2021/09/01 05:09:25;;;;;;;9.13;7.82;;;9.90;99.90;;;;;;5051921;28;20205;-67
2021/09/01 05:11:52;;;;;;;14.55;7.70;;;9.90;99.90;;;;;;5050622;28;20205;-67
2021/09/01 05:14:18;;;;;;;10.77;8.68;;;9.90;99.90;;;;;;5042913;28;20220;-67
2021/09/01 05:16:45;;;;;;;9.80;7.40;;;9.90;99.90;;;;;;5041593;28;21228;-66
2021/09/01 05:19:12;;;;;;;11.07;8.75;;;9.90;99.90;;;;;;5044703;28;20691;-68
2021/09/01 05:21:46;;;;;;;12.27;7.90;;;9.90;99.90;;;;;;5110842;22;20237;-67
2021/09/01 05:24:29;;;;;;;10.98;7.90;;;9.90;99.90;;;;;;5038495;28;20202;-67
2021/09/01 05:27:03;;;;;;;9.27;7.80;;;10.00;99.90;;;;;;5037704;28;20286;-67
2021/09/01 05:29:31;;;;;;;11.07;7.15;;;10.00;99.90;;;;;;5043131;28;20198;-67
2021/09/01 05:32:00;;;;;;;9.32;7.28;;;10.10;99.90;;;;;;5052383;28;20208;-67
2021/09/01 05:34:26;;;;;;;8.65;7.20;;;10.10;99.90;;;;;;5040871;28;20213;-67
2021/09/01 05:36:53;;;;;;;10.25;7.68;;;10.10;99.90;;;;;;5031787;28;20230;-67
2021/09/01 05:39:20;;;;;;;10.40;8.32;;;10.20;99.90;;;;;;5032397;28;20228;-67
2021/09/01 05:41:49;;;;;;;10.30;8.30;;;10.20;99.90;;;;;;5032221;28;20209;-67
2021/09/01 05:44:15;;;;;;;11.85;8.75;;;10.30;99.90;;;;;;5032253;28;20565;-67
2021/09/01 05:46:42;;;;;;;9.30;8.10;;;10.40;99.90;;;;;;5034093;28;20213;-67
2021/09/01 05:49:12;;;;;;;9.93;8.50;;;10.40;99.90;;;;;;5050105;28;20696;-67
2021/09/01 05:51:40;;;;;;;9.77;8.77;;;10.40;99.90;;;;;;5051781;28;20209;-67
2021/09/01 05:54:07;;;;;;;13.88;9.00;;;10.50;99.90;;;;;;5052228;28;20221;-67
2021/09/01 05:56:36;;;;;;;9.20;7.95;;;10.60;99.90;;;;;;5051222;28;20229;-67
2021/09/01 05:59:10;;;;;;;11.80;9.30;;;10.70;99.90;;;;;;5036451;28;20202;-67
2021/09/01 06:01:41;;;;;;;11.10;8.27;;;10.90;99.90;;;;;;5032242;28;20244;-67
2021/09/01 06:04:10;;;;;;;11.70;8.93;;;10.90;99.90;;;;;;5031938;28;20268;-67
2021/09/01 06:06:38;;;;;;;15.13;9.10;;;10.90;99.90;;;;;;5031311;28;20724;-67
2021/09/01 06:09:07;;;;;;;11.80;8.15;;;10.90;99.90;;;;;;5032102;28;20557;-67
2021/09/01 06:11:36;;;;;;;10.30;8.43;;;10.90;99.90;;;;;;5031909;28;20568;-67
2021/09/01 06:14:04;;;;;;;11.85;8.60;;;10.90;99.90;;;;;;5031791;28;20592;-67
2021/09/01 06:16:30;;;;;;;15.27;10.20;;;11.00;99.90;;;;;;5030847;28;20218;-67
2021/09/01 06:18:57;;;;;;;10.65;8.35;;;11.10;99.90;;;;;;5031511;28;20565;-67
2021/09/01 06:21:24;;;;;;;12.10;8.63;;;11.10;99.90;;;;;;5031842;28;20232;-67
2021/09/01 06:23:50;;;;;;;10.05;8.68;;;11.20;99.90;;;;;;5031109;28;20639;-67
2021/09/01 06:26:17;;;;;;;12.02;9.75;;;11.30;99.90;;;;;;5031422;28;20201;-67
2021/09/01 06:28:44;;;;;;;11.65;9.63;;;11.40;99.90;;;;;;5031239;28;20624;-67
2021/09/01 06:31:12;;;;;;;12.05;9.02;;;11.40;99.90;;;;;;5034094;28;20194;-67
2021/09/01 06:33:39;;;;;;;12.43;8.85;;;11.50;99.90;;;;;;5030406;28;20685;-67
2021/09/01 06:36:05;;;;;;;13.30;10.27;;;11.60;99.90;;;;;;5030081;28;20206;-67
2021/09/01 06:38:33;;;;;;;13.77;11.13;;;11.60;99.90;;;;;;5030837;28;20234;-67
2021/09/01 06:41:00;;;;;;;12.05;8.82;;;11.70;99.90;;;;;;5011236;28;20689;-67
2021/09/01 06:43:27;;;;;;;18.88;14.02;;;11.80;99.90;;;;;;5014722;28;20201;-67
2021/09/01 06:45:53;;;;;;;16.15;11.65;;;11.90;99.90;;;;;;5036136;28;20206;-67
2021/09/01 06:48:22;;;;;;;14.70;12.52;;;11.90;99.90;;;;;;5033954;28;20210;-67
2021/09/01 06:50:49;;;;;;;17.13;11.30;;;12.00;99.90;;;;;;5031174;28;20293;-67
2021/09/01 06:53:15;;;;;;;16.60;12.23;;;12.10;99.90;;;;;;5031105;28;20948;-67
2021/09/01 06:55:42;;;;;;;18.57;13.10;;;12.20;99.90;;;;;;5031081;28;20209;-67
2021/09/01 06:58:16;;;;;;;18.60;13.75;;;12.30;99.90;;;;;;5031134;28;20488;-67
2021/09/01 07:00:42;;;;;;;17.85;13.68;;;12.40;99.90;;;;;;5029820;28;20198;-67
2021/09/01 07:03:09;;;;;;;19.67;14.67;;;12.50;99.90;;;;;;5031291;28;20209;-67
2021/09/01 07:05:37;;;;;;;21.40;14.80;;;12.60;99.90;;;;;;5030394;28;20468;-67
2021/09/01 07:08:12;;;;;;;24.80;15.87;;;12.70;99.90;;;;;;5030934;28;20234;-67
2021/09/01 07:10:38;;;;;;;22.80;16.57;;;12.80;99.90;;;;;;5030787;28;20525;-67
2021/09/01 07:13:05;;;;;;;24.75;16.90;;;12.80;99.90;;;;;;5030396;28;20476;-67
2021/09/01 07:15:32;;;;;;;20.70;15.00;;;12.90;99.90;;;;;;5030294;28;20209;-67
2021/09/01 07:17:59;;;;;;;22.40;16.80;;;13.10;99.90;;;;;;5030130;28;20485;-68
2021/09/01 07:20:26;;;;;;;22.47;16.40;;;13.30;99.90;;;;;;5030645;28;20476;-67
2021/09/01 07:22:54;;;;;;;20.40;15.13;;;13.40;99.90;;;;;;5030384;28;20839;-67
2021/09/01 07:25:21;;;;;;;21.00;16.20;;;13.50;99.90;;;;;;5030272;28;20459;-67
2021/09/01 07:27:47;;;;;;;20.67;14.70;;;13.60;99.90;;;;;;5030080;28;20571;-67
2021/09/01 07:30:14;;;;;;;20.40;14.83;;;13.70;99.90;;;;;;5030749;28;20456;-67
2021/09/01 07:32:41;;;;;;;18.27;15.40;;;13.80;99.90;;;;;;5030310;28;20479;-67
2021/09/01 07:35:08;;;;;;;23.77;15.03;;;13.90;99.90;;;;;;5030453;28;20484;-67
2021/09/01 07:37:42;;;;;;;18.83;15.73;;;14.00;99.90;;;;;;5029534;28;20486;-67
2021/09/01 07:40:12;;;;;;;19.50;14.43;;;14.10;99.90;;;;;;5030512;28;20460;-67
2021/09/01 07:42:39;;;;;;;19.93;14.33;;;14.20;99.90;;;;;;5029994;28;20878;-68
2021/09/01 07:45:07;;;;;;;19.30;13.73;;;14.40;99.90;;;;;;5030208;28;20467;-68
2021/09/01 07:47:34;;;;;;;18.47;14.47;;;14.50;99.90;;;;;;5029724;28;20495;-68
2021/09/01 07:50:00;;;;;;;17.10;13.90;;;14.60;99.90;;;;;;5030004;28;21072;-68
2021/09/01 07:52:27;;;;;;;19.00;14.77;;;14.70;99.90;;;;;;5030064;28;20872;-68
2021/09/01 07:54:54;;;;;;;15.93;12.70;;;14.80;99.90;;;;;;5029840;28;20484;-68
2021/09/01 07:57:22;;;;;;;20.77;14.10;;;14.90;99.90;;;;;;5029196;28;20519;-68
2021/09/01 07:59:48;;;;;;;18.17;12.37;;;15.00;99.90;;;;;;5041853;28;20463;-68
2021/09/01 08:02:15;;;;;;;15.87;13.50;;;15.10;99.90;;;;;;5041731;28;20463;-68
2021/09/01 08:04:42;;;;;;;16.57;13.23;;;15.20;99.90;;;;;;5028972;28;20460;-68
2021/09/01 08:07:08;;;;;;;14.27;11.90;;;15.20;99.90;;;;;;5029119;28;20476;-68
2021/09/01 08:09:35;;;;;;;17.10;13.17;;;15.30;99.90;;;;;;5029070;28;20464;-68
2021/09/01 08:12:02;;;;;;;14.67;12.07;;;15.40;99.90;;;;;;5029573;28;20456;-68
2021/09/01 08:14:30;;;;;;;13.93;12.53;;;15.40;99.90;;;;;;5029411;28;20906;-68
2021/09/01 08:16:57;;;;;;;17.70;12.40;;;15.50;99.90;;;;;;5028683;28;20503;-68
2021/09/01 08:19:23;;;;;;;16.57;12.87;;;15.70;99.90;;;;;;5030281;28;20468;-68
2021/09/01 08:21:50;;;;;;;18.87;13.67;;;15.80;99.90;;;;;;5029045;28;20849;-68
2021/09/01 08:24:17;;;;;;;18.97;13.20;;;16.00;99.90;;;;;;5029410;28;20458;-68
2021/09/01 08:26:43;;;;;;;14.70;12.30;;;16.10;99.90;;;;;;5028601;28;20480;-68
2021/09/01 08:29:10;;;;;;;12.50;11.20;;;16.20;99.90;;;;;;5029241;28;20467;-68
2021/09/01 08:31:38;;;;;;;14.13;10.47;;;16.30;99.90;;;;;;5029191;28;20452;-68
2021/09/01 08:34:05;;;;;;;11.60;10.07;;;16.40;99.90;;;;;;5029229;28;20492;-68
2021/09/01 08:36:31;;;;;;;10.67;9.57;;;16.50;99.90;;;;;;5027537;28;20488;-68
2021/09/01 08:38:58;;;;;;;10.70;9.60;;;16.60;99.90;;;;;;5028094;28;20467;-68
2021/09/01 08:41:27;;;;;;;10.80;9.73;;;16.70;99.90;;;;;;5029047;28;20471;-68
2021/09/01 08:43:55;;;;;;;11.33;9.77;;;16.70;99.90;;;;;;5027471;28;20463;-68
2021/09/01 08:46:23;;;;;;;10.33;9.23;;;16.80;99.90;;;;;;5027739;28;20499;-67
2021/09/01 08:48:53;;;;;;;13.43;10.60;;;16.80;99.90;;;;;;5041652;28;20459;-68
2021/09/01 08:51:20;;;;;;;14.80;10.30;;;16.90;99.90;;;;;;5026293;28;20452;-67
2021/09/01 08:53:47;;;;;;;11.30;10.20;;;17.00;99.90;;;;;;5027858;28;21047;-68
2021/09/01 08:56:13;;;;;;;10.33;9.23;;;17.10;99.90;;;;;;5027847;28;20463;-67
2021/09/01 08:58:40;;;;;;;11.90;9.70;;;17.20;99.90;;;;;;5028052;28;20592;-68
2021/09/01 09:01:07;;;;;;;9.93;8.83;;;17.30;99.90;;;;;;5033015;28;20463;-68
2021/09/01 09:03:36;;;;;;;12.47;9.50;;;17.50;99.90;;;;;;5047128;28;20455;-68
2021/09/01 09:06:05;;;;;;;10.17;9.07;;;17.50;99.90;;;;;;5047500;28;20526;-67
2021/09/01 09:08:33;;;;;;;10.30;8.57;;;17.70;99.90;;;;;;5047960;28;20506;-67
2021/09/01 09:11:00;;;;;;;11.30;9.00;;;17.80;99.90;;;;;;5050202;28;20815;-68
2021/09/01 09:13:30;;;;;;;8.70;7.80;;;17.90;99.90;;;;;;5051676;28;20811;-68
2021/09/01 09:16:04;;;;;;;9.70;8.70;;;18.00;99.90;;;;;;5050999;28;20487;-68
2021/09/01 09:18:31;;;;;;;8.90;7.27;;;18.20;99.90;;;;;;5051437;28;20455;-68
2021/09/01 09:21:16;;;;;;;9.93;7.33;;;18.40;99.90;;;;;;5051531;28;20463;-68
2021/09/01 09:23:43;;;;;;;7.43;6.73;;;18.50;99.90;;;;;;5050813;28;20494;-68
2021/09/01 09:26:21;;;;;;;10.13;7.00;;;18.70;99.90;;;;;;5051194;28;20824;-68
2021/09/01 09:29:06;;;;;;;6.60;5.93;;;18.80;99.90;;;;;;5038386;28;20456;-68
2021/09/01 09:31:33;;;;;;;7.70;6.93;;;19.00;99.90;;;;;;5032516;28;20475;-68
2021/09/01 09:34:05;;;;;;;7.40;6.63;;;19.00;99.90;;;;;;5031283;28;20460;-68
2021/09/01 09:36:33;;;;;;;7.20;6.33;;;19.10;99.90;;;;;;5030788;28;20979;-67
2021/09/01 09:39:00;;;;;;;7.10;6.30;;;19.20;99.90;;;;;;5031327;28;20463;-67
2021/09/01 09:41:29;;;;;;;7.87;6.30;;;19.40;99.90;;;;;;5031568;28;20890;-68
2021/09/01 09:43:58;;;;;;;8.20;7.37;;;19.40;99.90;;;;;;5031865;28;20526;-67
2021/09/01 09:46:26;;;;;;;6.57;5.97;;;19.50;99.90;;;;;;5031273;28;20479;-67
2021/09/01 09:48:53;;;;;;;6.23;5.50;;;19.50;99.90;;;;;;5045477;28;20462;-67
2021/09/01 09:51:36;;;;;;;6.47;5.87;;;19.60;99.90;;;;;;5052350;28;20462;-67
2021/09/01 09:54:16;;;;;;;6.63;5.37;;;19.80;99.90;;;;;;5041665;28;20475;-68
2021/09/01 09:56:42;;;;;;;6.13;4.90;;;19.90;99.90;;;;;;5031373;28;20487;-67
2021/09/01 09:59:15;;;;;;;4.70;4.20;;;20.00;99.90;;;;;;5032566;28;20460;-68
2021/09/01 10:01:43;;;;;;;4.67;4.27;;;20.10;99.90;;;;;;5032263;28;20877;-67
2021/09/01 10:04:10;;;;;;;5.80;5.30;;;20.20;99.90;;;;;;5032154;28;20460;-67
2021/09/01 10:06:37;;;;;;;4.70;4.20;;;20.20;99.90;;;;;;5031667;28;20720;-67
2021/09/01 10:09:05;;;;;;;5.77;4.77;;;20.20;99.90;;;;;;5032227;28;20467;-67
2021/09/01 10:11:35;;;;;;;4.63;4.23;;;20.20;99.90;;;;;;5030019;28;20456;-67
2021/09/01 10:14:02;;;;;;;5.57;4.97;;;20.20;99.90;;;;;;5028496;28;20461;-67
2021/09/01 10:16:32;;;;;;;6.07;4.40;;;20.20;99.90;;;;;;5029810;28;20512;-67
2021/09/01 10:19:04;;;;;;;5.80;4.33;;;20.40;99.90;;;;;;5031601;28;20467;-67
2021/09/01 10:21:33;;;;;;;5.80;4.70;;;20.50;99.90;;;;;;5031299;28;20472;-68
2021/09/01 10:24:21;;;;;;;5.20;4.80;;;20.50;99.90;;;;;;5034000;28;20467;-67
2021/09/01 10:27:01;;;;;;;9.20;4.77;;;20.60;99.90;;;;;;5048110;28;20754;-68
2021/09/01 10:29:39;;;;;;;6.57;3.77;;;20.70;99.90;;;;;;5029216;28;20815;-68
2021/09/01 10:32:17;;;;;;;5.50;5.00;;;20.70;99.90;;;;;;5029179;28;20467;-67
2021/09/01 10:34:43;;;;;;;4.73;4.33;;;20.70;99.90;;;;;;5028941;28;20483;-67
2021/09/01 10:37:10;;;;;;;4.27;3.87;;;20.70;99.90;;;;;;5030983;28;20491;-67
2021/09/01 10:39:39;;;;;;;4.80;4.40;;;20.70;99.90;;;;;;5031499;28;20469;-67
2021/09/01 10:42:41;;;;;;;4.13;3.77;;;20.80;99.90;;;;;;5031417;28;20464;-67
2021/09/01 10:45:11;;;;;;;6.03;4.13;;;20.70;99.90;;;;;;5030923;28;20975;-67
2021/09/01 10:48:09;;;;;;;5.40;4.33;;;20.60;99.90;;;;;;5033312;28;20486;-67
2021/09/01 10:50:39;;;;;;;4.97;4.27;;;20.40;99.90;;;;;;4960110;28;20560;-67
2021/09/01 10:53:14;;;;;;;5.30;4.10;;;20.40;99.90;;;;;;5023204;28;20465;-67
2021/09/01 10:56:04;;;;;;;4.47;4.07;;;20.50;99.90;;;;;;5048392;28;21082;-67
2021/09/01 10:58:34;;;;;;;5.30;4.10;;;20.60;99.90;;;;;;5044489;28;20894;-67
2021/09/01 11:01:10;;;;;;;4.73;3.97;;;20.70;99.90;;;;;;5046642;28;20478;-67
2021/09/01 11:03:39;;;;;;;4.93;4.37;;;20.70;99.90;;;;;;5029301;28;20456;-67
2021/09/01 11:06:23;;;;;;;4.77;4.30;;;20.60;99.90;;;;;;5030261;28;20456;-68
2021/09/01 11:09:11;;;;;;;4.90;4.47;;;20.50;99.90;;;;;;5030286;28;20510;-68
2021/09/01 11:11:57;;;;;;;5.00;4.60;;;20.40;99.90;;;;;;5030440;28;20457;-68
2021/09/01 11:14:42;;;;;;;4.90;4.40;;;20.60;99.90;;;;;;5029892;28;20468;-68
2021/09/01 11:17:11;;;;;;;4.67;4.27;;;20.80;99.90;;;;;;5029815;28;20815;-67
2021/09/01 11:19:39;;;;;;;4.90;4.50;;;21.00;99.90;;;;;;5029525;28;20555;-67
2021/09/01 11:22:08;;;;;;;7.10;4.60;;;21.00;99.90;;;;;;5030561;28;20464;-67
2021/09/01 11:24:52;;;;;;;5.47;4.70;;;21.10;99.90;;;;;;5030313;28;20471;-68
2021/09/01 11:27:26;;;;;;;5.60;4.27;;;21.30;99.90;;;;;;5028366;28;20554;-68
2021/09/01 11:30:01;;;;;;;5.23;4.60;;;21.50;99.90;;;;;;5030097;28;20467;-67
2021/09/01 11:32:28;;;;;;;5.00;4.50;;;21.60;99.90;;;;;;5027266;28;20460;-69
2021/09/01 11:34:55;;;;;;;5.50;4.13;;;21.70;99.90;;;;;;5028744;28;20512;-69
2021/09/01 11:37:24;;;;;;;7.10;4.60;;;21.80;99.90;;;;;;5029375;28;20480;-67
2021/09/01 11:39:57;;;;;;;7.17;5.10;;;22.00;99.90;;;;;;5029501;28;20868;-68
2021/09/01 11:42:24;;;;;;;5.37;4.27;;;22.20;99.90;;;;;;5030008;28;20880;-68
2021/09/01 11:44:59;;;;;;;5.30;4.77;;;22.20;99.90;;;;;;5029205;28;20581;-68
2021/09/01 11:47:29;;;;;;;5.80;5.30;;;22.20;99.90;;;;;;5029276;28;20491;-68
2021/09/01 11:49:59;;;;;;;5.00;4.60;;;22.10;99.90;;;;;;5030459;28;20827;-68
2021/09/01 11:52:28;;;;;;;4.97;4.47;;;22.10;99.90;;;;;;5029609;28;20460;-68
2021/09/01 11:54:56;;;;;;;5.23;4.73;;;22.20;99.90;;;;;;5029466;28;20490;-68
2021/09/01 11:57:26;;;;;;;5.20;4.70;;;22.30;99.90;;;;;;5026977;28;20484;-69
2021/09/01 11:59:54;;;;;;;5.00;4.50;;;22.40;99.90;;;;;;5029281;28;20464;-67
2021/09/01 12:02:25;;;;;;;6.10;4.50;;;22.50;99.90;;;;;;5029560;28;20836;-67
2021/09/01 12:04:52;;;;;;;9.67;4.63;;;22.30;99.90;;;;;;5038560;28;20493;-67
2021/09/01 12:07:26;;;;;;;4.97;4.47;;;21.90;99.90;;;;;;5048413;28;20850;-67
2021/09/01 12:09:57;;;;;;;5.03;4.60;;;21.50;99.90;;;;;;5048321;28;20455;-67
2021/09/01 12:12:32;;;;;;;4.37;3.97;;;21.20;99.90;;;;;;5045137;28;20476;-67
2021/09/01 12:15:06;;;;;;;4.80;4.30;;;21.00;99.90;;;;;;5028452;28;20479;-67
2021/09/01 12:17:35;;;;;;;4.43;4.03;;;21.10;99.90;;;;;;5028110;28;20494;-67
2021/09/01 12:20:01;;;;;;;4.33;3.93;;;21.30;99.90;;;;;;5028673;28;20833;-67
2021/09/01 12:22:30;;;;;;;5.37;4.83;;;21.60;99.90;;;;;;5028101;28;20472;-67
2021/09/01 12:25:06;;;;;;;5.73;5.17;;;21.90;99.90;;;;;;5028749;28;20507;-67
2021/09/01 12:27:33;;;;;;;4.97;4.40;;;22.10;99.90;;;;;;5028485;28;20480;-67
2021/09/01 12:29:59;;;;;;;5.13;4.67;;;22.20;99.90;;;;;;5029335;28;20464;-67
2021/09/01 12:32:26;;;;;;;4.57;4.17;;;22.40;99.90;;;;;;5029187;28;20468;-67
2021/09/01 12:34:56;;;;;;;4.50;4.10;;;22.50;99.90;;;;;;5012427;28;20574;-66
2021/09/01 12:37:26;;;;;;;4.40;4.00;;;22.60;99.90;;;;;;5004679;28;20575;-67
2021/09/01 12:39:54;;;;;;;4.40;4.00;;;22.70;99.90;;;;;;5001192;28;20481;-66
2021/09/01 12:42:28;;;;;;;4.97;4.30;;;22.70;99.90;;;;;;5020416;28;20968;-67
2021/09/01 12:44:57;;;;;;;4.50;4.10;;;22.70;99.90;;;;;;5030855;28;20808;-66
2021/09/01 12:47:25;;;;;;;6.30;3.90;;;22.50;99.90;;;;;;5032066;28;20852;-67